sensor_id;sensor_type;location;lat;lon;timestamp;P1;durP1;ratioP1;P2;durP2;ratioP2
21501;SDS011;27639;48.674;9.242;2023-07-29T00:00:45;6.65;;;2.50;;
21501;SDS011;27639;48.674;9.242;2023-07-29T00:03:11;7.15;;;2.10;;
21501;SDS011;27639;48.674;9.242;2023-07-29T00:05:38;3.88;;;2.15;;
21501;SDS011;27639;48.674;9.242;2023-07-29T00:08:04;3.65;;;2.20;;
21501;SDS011;27639;48.674;9.242;2023-07-29T00:10:31;4.60;;;2.10;;
21501;SDS011;27639;48.674;9.242;2023-07-29T00:12:57;4.45;;;2.25;;
21501;SDS011;27639;48.674;9.242;2023-07-29T00:15:22;3.97;;;2.25;;
21501;SDS011;27639;48.674;9.242;2023-07-29T00:17:48;5.05;;;2.63;;
21501;SDS011;27639;48.674;9.242;2023-07-29T00:20:14;4.88;;;2.50;;
21501;SDS011;27639;48.674;9.242;2023-07-29T00:22:40;3.80;;;2.30;;
21501;SDS011;27639;48.674;9.242;2023-07-29T00:25:06;3.65;;;2.17;;
21501;SDS011;27639;48.674;9.242;2023-07-29T00:27:32;6.03;;;3.15;;
21501;SDS011;27639;48.674;9.242;2023-07-29T00:29:57;3.83;;;2.33;;
21501;SDS011;27639;48.674;9.242;2023-07-29T00:32:23;4.00;;;2.60;;
21501;SDS011;27639;48.674;9.242;2023-07-29T00:34:49;5.20;;;2.60;;
21501;SDS011;27639;48.674;9.242;2023-07-29T00:37:14;4.55;;;2.42;;
21501;SDS011;27639;48.674;9.242;2023-07-29T00:39:40;4.65;;;2.30;;
21501;SDS011;27639;48.674;9.242;2023-07-29T00:42:05;5.32;;;2.42;;
21501;SDS011;27639;48.674;9.242;2023-07-29T00:44:31;4.40;;;2.30;;
21501;SDS011;27639;48.674;9.242;2023-07-29T00:46:57;6.18;;;2.65;;
21501;SDS011;27639;48.674;9.242;2023-07-29T00:49:25;6.35;;;2.42;;
21501;SDS011;27639;48.674;9.242;2023-07-29T00:51:51;4.90;;;2.58;;
21501;SDS011;27639;48.674;9.242;2023-07-29T00:54:16;3.70;;;2.42;;
21501;SDS011;27639;48.674;9.242;2023-07-29T00:56:42;5.53;;;2.65;;
21501;SDS011;27639;48.674;9.242;2023-07-29T00:59:08;5.05;;;2.70;;
21501;SDS011;27639;48.674;9.242;2023-07-29T01:01:33;4.38;;;2.30;;
21501;SDS011;27639;48.674;9.242;2023-07-29T01:03:59;5.40;;;2.75;;
21501;SDS011;27639;48.674;9.242;2023-07-29T01:09:30;4.05;;;2.60;;
21501;SDS011;27639;48.674;9.242;2023-07-29T01:17:36;6.18;;;2.72;;
21501;SDS011;27639;48.674;9.242;2023-07-29T01:20:08;6.10;;;2.95;;
21501;SDS011;27639;48.674;9.242;2023-07-29T01:22:37;4.50;;;2.85;;
21501;SDS011;27639;48.674;9.242;2023-07-29T01:25:05;6.25;;;3.17;;
21501;SDS011;27639;48.674;9.242;2023-07-29T01:27:31;6.55;;;3.15;;
21501;SDS011;27639;48.674;9.242;2023-07-29T01:29:56;5.13;;;3.13;;
21501;SDS011;27639;48.674;9.242;2023-07-29T01:35:25;6.25;;;3.05;;
21501;SDS011;27639;48.674;9.242;2023-07-29T01:37:56;6.68;;;3.25;;
21501;SDS011;27639;48.674;9.242;2023-07-29T01:40:34;4.70;;;2.75;;
21501;SDS011;27639;48.674;9.242;2023-07-29T01:43:00;6.40;;;3.28;;
21501;SDS011;27639;48.674;9.242;2023-07-29T01:45:26;6.47;;;3.15;;
21501;SDS011;27639;48.674;9.242;2023-07-29T01:47:52;6.35;;;3.30;;
21501;SDS011;27639;48.674;9.242;2023-07-29T01:50:17;6.30;;;3.22;;
21501;SDS011;27639;48.674;9.242;2023-07-29T01:52:43;5.00;;;2.95;;
21501;SDS011;27639;48.674;9.242;2023-07-29T01:55:08;4.97;;;3.38;;
21501;SDS011;27639;48.674;9.242;2023-07-29T01:57:34;5.07;;;3.03;;
21501;SDS011;27639;48.674;9.242;2023-07-29T02:00:00;4.53;;;2.90;;
21501;SDS011;27639;48.674;9.242;2023-07-29T02:02:25;6.70;;;3.10;;
21501;SDS011;27639;48.674;9.242;2023-07-29T02:04:51;7.03;;;3.20;;
21501;SDS011;27639;48.674;9.242;2023-07-29T02:07:20;6.82;;;3.20;;
21501;SDS011;27639;48.674;9.242;2023-07-29T02:09:45;5.35;;;3.05;;
21501;SDS011;27639;48.674;9.242;2023-07-29T02:12:11;6.35;;;2.70;;
21501;SDS011;27639;48.674;9.242;2023-07-29T02:14:36;5.25;;;3.10;;
21501;SDS011;27639;48.674;9.242;2023-07-29T02:17:02;4.45;;;3.10;;
21501;SDS011;27639;48.674;9.242;2023-07-29T02:19:28;6.70;;;3.20;;
21501;SDS011;27639;48.674;9.242;2023-07-29T02:21:53;7.50;;;3.42;;
21501;SDS011;27639;48.674;9.242;2023-07-29T02:24:19;6.30;;;3.60;;
21501;SDS011;27639;48.674;9.242;2023-07-29T02:26:44;6.80;;;3.50;;
21501;SDS011;27639;48.674;9.242;2023-07-29T02:29:10;6.65;;;3.17;;
21501;SDS011;27639;48.674;9.242;2023-07-29T02:31:35;5.75;;;3.58;;
21501;SDS011;27639;48.674;9.242;2023-07-29T02:34:02;8.40;;;3.90;;
21501;SDS011;27639;48.674;9.242;2023-07-29T02:36:28;5.20;;;3.40;;
21501;SDS011;27639;48.674;9.242;2023-07-29T02:38:53;5.80;;;3.55;;
21501;SDS011;27639;48.674;9.242;2023-07-29T02:41:19;7.07;;;3.40;;
21501;SDS011;27639;48.674;9.242;2023-07-29T02:43:48;6.00;;;3.78;;
21501;SDS011;27639;48.674;9.242;2023-07-29T02:46:14;6.50;;;4.20;;
21501;SDS011;27639;48.674;9.242;2023-07-29T02:48:41;8.68;;;4.28;;
21501;SDS011;27639;48.674;9.242;2023-07-29T02:51:07;6.10;;;3.65;;
21501;SDS011;27639;48.674;9.242;2023-07-29T02:53:34;6.68;;;3.85;;
21501;SDS011;27639;48.674;9.242;2023-07-29T02:56:01;5.32;;;3.70;;
21501;SDS011;27639;48.674;9.242;2023-07-29T02:58:28;6.03;;;3.60;;
21501;SDS011;27639;48.674;9.242;2023-07-29T03:00:59;7.80;;;3.85;;
21501;SDS011;27639;48.674;9.242;2023-07-29T03:03:28;6.28;;;4.20;;
21501;SDS011;27639;48.674;9.242;2023-07-29T03:06:01;7.30;;;3.42;;
21501;SDS011;27639;48.674;9.242;2023-07-29T03:08:27;7.72;;;4.38;;
21501;SDS011;27639;48.674;9.242;2023-07-29T03:10:53;6.57;;;3.50;;
21501;SDS011;27639;48.674;9.242;2023-07-29T03:13:19;7.32;;;3.78;;
21501;SDS011;27639;48.674;9.242;2023-07-29T03:15:45;6.85;;;3.55;;
21501;SDS011;27639;48.674;9.242;2023-07-29T03:18:11;6.97;;;3.42;;
21501;SDS011;27639;48.674;9.242;2023-07-29T03:20:36;7.38;;;3.85;;
21501;SDS011;27639;48.674;9.242;2023-07-29T03:23:02;4.80;;;3.15;;
21501;SDS011;27639;48.674;9.242;2023-07-29T03:25:28;5.90;;;3.40;;
21501;SDS011;27639;48.674;9.242;2023-07-29T03:27:54;5.93;;;3.30;;
21501;SDS011;27639;48.674;9.242;2023-07-29T03:30:20;5.22;;;3.08;;
21501;SDS011;27639;48.674;9.242;2023-07-29T03:32:46;6.00;;;3.55;;
21501;SDS011;27639;48.674;9.242;2023-07-29T03:35:12;5.00;;;3.20;;
21501;SDS011;27639;48.674;9.242;2023-07-29T03:37:38;5.40;;;2.95;;
21501;SDS011;27639;48.674;9.242;2023-07-29T03:40:05;5.53;;;2.83;;
21501;SDS011;27639;48.674;9.242;2023-07-29T03:42:31;6.00;;;2.97;;
21501;SDS011;27639;48.674;9.242;2023-07-29T03:44:56;5.30;;;2.85;;
21501;SDS011;27639;48.674;9.242;2023-07-29T03:47:22;4.63;;;2.80;;
21501;SDS011;27639;48.674;9.242;2023-07-29T03:49:47;5.28;;;2.63;;
21501;SDS011;27639;48.674;9.242;2023-07-29T03:52:13;5.85;;;3.00;;
21501;SDS011;27639;48.674;9.242;2023-07-29T03:54:39;4.97;;;2.88;;
21501;SDS011;27639;48.674;9.242;2023-07-29T03:57:05;4.97;;;2.30;;
21501;SDS011;27639;48.674;9.242;2023-07-29T03:59:30;4.28;;;2.58;;
21501;SDS011;27639;48.674;9.242;2023-07-29T04:01:56;4.22;;;2.22;;
21501;SDS011;27639;48.674;9.242;2023-07-29T04:04:22;4.18;;;1.80;;
21501;SDS011;27639;48.674;9.242;2023-07-29T04:06:47;3.03;;;1.60;;
21501;SDS011;27639;48.674;9.242;2023-07-29T04:09:13;3.70;;;1.83;;
21501;SDS011;27639;48.674;9.242;2023-07-29T04:11:38;5.53;;;1.65;;
21501;SDS011;27639;48.674;9.242;2023-07-29T04:14:04;3.00;;;1.75;;
21501;SDS011;27639;48.674;9.242;2023-07-29T04:16:30;3.58;;;2.28;;
21501;SDS011;27639;48.674;9.242;2023-07-29T04:18:55;4.88;;;2.50;;
21501;SDS011;27639;48.674;9.242;2023-07-29T04:21:21;6.22;;;2.97;;
21501;SDS011;27639;48.674;9.242;2023-07-29T04:23:46;5.13;;;2.70;;
21501;SDS011;27639;48.674;9.242;2023-07-29T04:26:12;6.63;;;2.38;;
21501;SDS011;27639;48.674;9.242;2023-07-29T04:28:38;4.65;;;2.53;;
21501;SDS011;27639;48.674;9.242;2023-07-29T04:31:03;7.28;;;2.75;;
21501;SDS011;27639;48.674;9.242;2023-07-29T04:33:29;5.40;;;2.40;;
21501;SDS011;27639;48.674;9.242;2023-07-29T04:35:56;9.70;;;2.70;;
21501;SDS011;27639;48.674;9.242;2023-07-29T04:38:21;5.00;;;2.28;;
21501;SDS011;27639;48.674;9.242;2023-07-29T04:40:50;5.22;;;2.80;;
21501;SDS011;27639;48.674;9.242;2023-07-29T04:43:15;3.78;;;2.30;;
21501;SDS011;27639;48.674;9.242;2023-07-29T04:45:44;7.13;;;2.60;;
21501;SDS011;27639;48.674;9.242;2023-07-29T04:48:10;6.50;;;2.72;;
21501;SDS011;27639;48.674;9.242;2023-07-29T04:50:36;4.15;;;2.33;;
21501;SDS011;27639;48.674;9.242;2023-07-29T04:53:01;7.25;;;2.45;;
21501;SDS011;27639;48.674;9.242;2023-07-29T04:55:27;4.35;;;2.20;;
21501;SDS011;27639;48.674;9.242;2023-07-29T04:57:52;6.45;;;2.53;;
21501;SDS011;27639;48.674;9.242;2023-07-29T05:00:18;7.80;;;3.10;;
21501;SDS011;27639;48.674;9.242;2023-07-29T05:02:43;8.02;;;2.50;;
21501;SDS011;27639;48.674;9.242;2023-07-29T05:05:09;5.93;;;2.58;;
21501;SDS011;27639;48.674;9.242;2023-07-29T05:07:34;7.00;;;2.65;;
21501;SDS011;27639;48.674;9.242;2023-07-29T05:10:00;6.18;;;2.78;;
21501;SDS011;27639;48.674;9.242;2023-07-29T05:12:25;7.10;;;2.60;;
21501;SDS011;27639;48.674;9.242;2023-07-29T05:14:51;5.80;;;2.50;;
21501;SDS011;27639;48.674;9.242;2023-07-29T05:17:16;4.00;;;2.13;;
21501;SDS011;27639;48.674;9.242;2023-07-29T05:19:42;7.47;;;2.30;;
21501;SDS011;27639;48.674;9.242;2023-07-29T05:22:08;4.65;;;2.25;;
21501;SDS011;27639;48.674;9.242;2023-07-29T05:24:35;4.95;;;2.20;;
21501;SDS011;27639;48.674;9.242;2023-07-29T05:27:00;4.75;;;1.90;;
21501;SDS011;27639;48.674;9.242;2023-07-29T05:29:26;3.47;;;1.75;;
21501;SDS011;27639;48.674;9.242;2023-07-29T05:31:51;4.10;;;1.75;;
21501;SDS011;27639;48.674;9.242;2023-07-29T05:34:17;3.20;;;1.70;;
21501;SDS011;27639;48.674;9.242;2023-07-29T05:36:42;4.00;;;1.60;;
21501;SDS011;27639;48.674;9.242;2023-07-29T05:39:08;3.20;;;1.70;;
21501;SDS011;27639;48.674;9.242;2023-07-29T05:41:33;4.07;;;2.10;;
21501;SDS011;27639;48.674;9.242;2023-07-29T05:43:59;4.88;;;1.83;;
21501;SDS011;27639;48.674;9.242;2023-07-29T05:46:24;3.30;;;1.70;;
21501;SDS011;27639;48.674;9.242;2023-07-29T05:48:50;5.07;;;2.10;;
21501;SDS011;27639;48.674;9.242;2023-07-29T05:51:16;3.75;;;1.70;;
21501;SDS011;27639;48.674;9.242;2023-07-29T05:53:41;4.47;;;1.98;;
21501;SDS011;27639;48.674;9.242;2023-07-29T05:56:07;6.32;;;3.53;;
21501;SDS011;27639;48.674;9.242;2023-07-29T05:58:32;6.13;;;3.40;;
21501;SDS011;27639;48.674;9.242;2023-07-29T06:00:58;5.00;;;2.45;;
21501;SDS011;27639;48.674;9.242;2023-07-29T06:03:23;4.05;;;2.20;;
21501;SDS011;27639;48.674;9.242;2023-07-29T06:05:49;3.47;;;1.67;;
21501;SDS011;27639;48.674;9.242;2023-07-29T06:08:15;3.35;;;1.80;;
21501;SDS011;27639;48.674;9.242;2023-07-29T06:10:40;3.72;;;1.65;;
21501;SDS011;27639;48.674;9.242;2023-07-29T06:13:06;5.22;;;1.50;;
21501;SDS011;27639;48.674;9.242;2023-07-29T06:15:31;4.07;;;1.70;;
21501;SDS011;27639;48.674;9.242;2023-07-29T06:17:57;3.65;;;1.83;;
21501;SDS011;27639;48.674;9.242;2023-07-29T06:20:23;4.38;;;1.67;;
21501;SDS011;27639;48.674;9.242;2023-07-29T06:22:48;3.63;;;1.58;;
21501;SDS011;27639;48.674;9.242;2023-07-29T06:25:14;3.67;;;1.50;;
21501;SDS011;27639;48.674;9.242;2023-07-29T06:27:40;4.65;;;1.70;;
21501;SDS011;27639;48.674;9.242;2023-07-29T06:30:05;3.85;;;1.80;;
21501;SDS011;27639;48.674;9.242;2023-07-29T06:32:31;3.42;;;1.60;;
21501;SDS011;27639;48.674;9.242;2023-07-29T06:34:57;4.05;;;1.65;;
21501;SDS011;27639;48.674;9.242;2023-07-29T06:37:22;3.95;;;1.40;;
21501;SDS011;27639;48.674;9.242;2023-07-29T06:39:48;3.60;;;1.60;;
21501;SDS011;27639;48.674;9.242;2023-07-29T06:42:14;3.15;;;1.52;;
21501;SDS011;27639;48.674;9.242;2023-07-29T06:44:39;3.05;;;1.40;;
21501;SDS011;27639;48.674;9.242;2023-07-29T06:47:05;2.88;;;1.50;;
21501;SDS011;27639;48.674;9.242;2023-07-29T06:49:31;3.83;;;1.95;;
21501;SDS011;27639;48.674;9.242;2023-07-29T06:51:56;4.10;;;1.60;;
21501;SDS011;27639;48.674;9.242;2023-07-29T06:54:25;4.55;;;1.90;;
21501;SDS011;27639;48.674;9.242;2023-07-29T06:56:51;7.65;;;4.95;;
21501;SDS011;27639;48.674;9.242;2023-07-29T06:59:17;6.38;;;2.50;;
21501;SDS011;27639;48.674;9.242;2023-07-29T07:01:43;7.40;;;2.53;;
21501;SDS011;27639;48.674;9.242;2023-07-29T07:04:08;5.60;;;2.58;;
21501;SDS011;27639;48.674;9.242;2023-07-29T07:06:34;4.07;;;2.30;;
21501;SDS011;27639;48.674;9.242;2023-07-29T07:09:00;4.88;;;2.70;;
21501;SDS011;27639;48.674;9.242;2023-07-29T07:11:25;5.82;;;3.08;;
21501;SDS011;27639;48.674;9.242;2023-07-29T07:13:51;4.78;;;1.50;;
21501;SDS011;27639;48.674;9.242;2023-07-29T07:16:16;4.13;;;1.60;;
21501;SDS011;27639;48.674;9.242;2023-07-29T07:18:42;3.90;;;1.50;;
21501;SDS011;27639;48.674;9.242;2023-07-29T07:21:08;3.05;;;1.08;;
21501;SDS011;27639;48.674;9.242;2023-07-29T07:23:33;3.25;;;1.40;;
21501;SDS011;27639;48.674;9.242;2023-07-29T07:25:59;3.05;;;1.20;;
21501;SDS011;27639;48.674;9.242;2023-07-29T07:28:25;3.20;;;1.02;;
21501;SDS011;27639;48.674;9.242;2023-07-29T07:30:51;3.35;;;0.90;;
21501;SDS011;27639;48.674;9.242;2023-07-29T07:33:16;3.80;;;0.88;;
21501;SDS011;27639;48.674;9.242;2023-07-29T07:35:42;3.70;;;1.20;;
21501;SDS011;27639;48.674;9.242;2023-07-29T07:38:08;4.10;;;1.10;;
21501;SDS011;27639;48.674;9.242;2023-07-29T07:40:34;2.47;;;1.10;;
21501;SDS011;27639;48.674;9.242;2023-07-29T07:43:00;2.83;;;1.20;;
21501;SDS011;27639;48.674;9.242;2023-07-29T07:45:26;2.53;;;1.17;;
21501;SDS011;27639;48.674;9.242;2023-07-29T07:47:52;2.67;;;1.20;;
21501;SDS011;27639;48.674;9.242;2023-07-29T07:50:18;2.90;;;1.50;;
21501;SDS011;27639;48.674;9.242;2023-07-29T07:52:44;3.72;;;1.73;;
21501;SDS011;27639;48.674;9.242;2023-07-29T07:55:10;3.30;;;1.55;;
21501;SDS011;27639;48.674;9.242;2023-07-29T07:57:35;3.45;;;1.40;;
21501;SDS011;27639;48.674;9.242;2023-07-29T08:00:01;7.00;;;1.95;;
21501;SDS011;27639;48.674;9.242;2023-07-29T08:02:26;4.65;;;1.55;;
21501;SDS011;27639;48.674;9.242;2023-07-29T08:04:52;4.63;;;1.70;;
21501;SDS011;27639;48.674;9.242;2023-07-29T08:07:17;3.42;;;1.70;;
21501;SDS011;27639;48.674;9.242;2023-07-29T08:09:43;3.92;;;1.75;;
21501;SDS011;27639;48.674;9.242;2023-07-29T08:12:09;3.60;;;2.28;;
21501;SDS011;27639;48.674;9.242;2023-07-29T08:14:34;6.28;;;2.22;;
21501;SDS011;27639;48.674;9.242;2023-07-29T08:17:00;4.60;;;2.00;;
21501;SDS011;27639;48.674;9.242;2023-07-29T08:19:26;5.07;;;2.53;;
21501;SDS011;27639;48.674;9.242;2023-07-29T08:21:52;5.35;;;2.50;;
21501;SDS011;27639;48.674;9.242;2023-07-29T08:24:18;4.45;;;2.38;;
21501;SDS011;27639;48.674;9.242;2023-07-29T08:26:43;4.65;;;2.50;;
21501;SDS011;27639;48.674;9.242;2023-07-29T08:29:09;5.03;;;2.30;;
21501;SDS011;27639;48.674;9.242;2023-07-29T08:31:34;4.45;;;2.42;;
21501;SDS011;27639;48.674;9.242;2023-07-29T08:34:00;5.35;;;2.53;;
21501;SDS011;27639;48.674;9.242;2023-07-29T08:36:26;5.63;;;2.35;;
21501;SDS011;27639;48.674;9.242;2023-07-29T08:38:51;5.40;;;2.70;;
21501;SDS011;27639;48.674;9.242;2023-07-29T08:41:37;4.10;;;2.42;;
21501;SDS011;27639;48.674;9.242;2023-07-29T08:46:51;3.92;;;2.45;;
21501;SDS011;27639;48.674;9.242;2023-07-29T08:49:19;4.28;;;2.03;;
21501;SDS011;27639;48.674;9.242;2023-07-29T08:51:46;3.25;;;1.90;;
21501;SDS011;27639;48.674;9.242;2023-07-29T08:54:13;3.55;;;2.30;;
21501;SDS011;27639;48.674;9.242;2023-07-29T08:56:40;4.13;;;2.05;;
21501;SDS011;27639;48.674;9.242;2023-07-29T08:59:06;3.15;;;1.75;;
21501;SDS011;27639;48.674;9.242;2023-07-29T09:01:32;3.72;;;1.73;;
21501;SDS011;27639;48.674;9.242;2023-07-29T09:03:58;3.80;;;2.10;;
21501;SDS011;27639;48.674;9.242;2023-07-29T09:06:24;4.10;;;2.13;;
21501;SDS011;27639;48.674;9.242;2023-07-29T09:08:53;3.83;;;1.90;;
21501;SDS011;27639;48.674;9.242;2023-07-29T09:11:21;3.22;;;1.77;;
21501;SDS011;27639;48.674;9.242;2023-07-29T09:13:47;3.13;;;1.85;;
21501;SDS011;27639;48.674;9.242;2023-07-29T09:16:13;4.28;;;2.03;;
21501;SDS011;27639;48.674;9.242;2023-07-29T09:18:39;3.30;;;1.80;;
21501;SDS011;27639;48.674;9.242;2023-07-29T09:21:04;3.75;;;1.70;;
21501;SDS011;27639;48.674;9.242;2023-07-29T09:23:43;3.65;;;1.70;;
21501;SDS011;27639;48.674;9.242;2023-07-29T09:26:09;3.90;;;1.70;;
21501;SDS011;27639;48.674;9.242;2023-07-29T09:28:37;3.15;;;1.80;;
21501;SDS011;27639;48.674;9.242;2023-07-29T09:31:03;3.42;;;1.52;;
21501;SDS011;27639;48.674;9.242;2023-07-29T09:33:32;2.78;;;1.58;;
21501;SDS011;27639;48.674;9.242;2023-07-29T09:36:01;3.33;;;1.63;;
21501;SDS011;27639;48.674;9.242;2023-07-29T09:38:36;3.10;;;1.90;;
21501;SDS011;27639;48.674;9.242;2023-07-29T09:41:02;3.45;;;1.95;;
21501;SDS011;27639;48.674;9.242;2023-07-29T09:43:32;4.32;;;1.70;;
21501;SDS011;27639;48.674;9.242;2023-07-29T09:45:59;3.40;;;2.15;;
21501;SDS011;27639;48.674;9.242;2023-07-29T09:48:32;3.92;;;1.75;;
21501;SDS011;27639;48.674;9.242;2023-07-29T09:50:58;3.50;;;1.80;;
21501;SDS011;27639;48.674;9.242;2023-07-29T09:53:24;3.25;;;1.45;;
21501;SDS011;27639;48.674;9.242;2023-07-29T09:55:50;3.42;;;1.75;;
21501;SDS011;27639;48.674;9.242;2023-07-29T09:58:26;4.38;;;1.75;;
21501;SDS011;27639;48.674;9.242;2023-07-29T10:00:53;2.67;;;1.52;;
21501;SDS011;27639;48.674;9.242;2023-07-29T10:03:18;3.83;;;1.92;;
21501;SDS011;27639;48.674;9.242;2023-07-29T10:05:46;3.47;;;1.77;;
21501;SDS011;27639;48.674;9.242;2023-07-29T10:08:12;3.63;;;2.00;;
21501;SDS011;27639;48.674;9.242;2023-07-29T10:10:38;3.92;;;2.05;;
21501;SDS011;27639;48.674;9.242;2023-07-29T10:13:07;5.15;;;2.22;;
21501;SDS011;27639;48.674;9.242;2023-07-29T10:15:33;4.22;;;1.80;;
21501;SDS011;27639;48.674;9.242;2023-07-29T10:18:00;4.32;;;2.13;;
21501;SDS011;27639;48.674;9.242;2023-07-29T10:20:27;4.05;;;1.73;;
21501;SDS011;27639;48.674;9.242;2023-07-29T10:22:55;5.18;;;2.70;;
21501;SDS011;27639;48.674;9.242;2023-07-29T10:25:24;4.22;;;2.20;;
21501;SDS011;27639;48.674;9.242;2023-07-29T10:27:59;3.80;;;2.17;;
21501;SDS011;27639;48.674;9.242;2023-07-29T10:30:30;5.55;;;2.40;;
21501;SDS011;27639;48.674;9.242;2023-07-29T10:32:56;5.05;;;1.90;;
21501;SDS011;27639;48.674;9.242;2023-07-29T10:35:24;4.03;;;2.10;;
21501;SDS011;27639;48.674;9.242;2023-07-29T10:37:50;3.80;;;1.90;;
21501;SDS011;27639;48.674;9.242;2023-07-29T10:40:18;5.03;;;1.90;;
21501;SDS011;27639;48.674;9.242;2023-07-29T10:43:18;4.13;;;2.30;;
21501;SDS011;27639;48.674;9.242;2023-07-29T10:45:38;5.30;;;1.83;;
21501;SDS011;27639;48.674;9.242;2023-07-29T10:48:11;4.43;;;2.08;;
21501;SDS011;27639;48.674;9.242;2023-07-29T10:50:37;3.30;;;2.00;;
21501;SDS011;27639;48.674;9.242;2023-07-29T10:53:03;3.25;;;2.00;;
21501;SDS011;27639;48.674;9.242;2023-07-29T10:55:33;4.65;;;2.10;;
21501;SDS011;27639;48.674;9.242;2023-07-29T10:58:12;3.28;;;1.77;;
21501;SDS011;27639;48.674;9.242;2023-07-29T11:00:43;3.60;;;1.85;;
21501;SDS011;27639;48.674;9.242;2023-07-29T11:03:09;4.05;;;1.75;;
21501;SDS011;27639;48.674;9.242;2023-07-29T11:05:44;3.38;;;2.03;;
21501;SDS011;27639;48.674;9.242;2023-07-29T11:08:17;3.53;;;2.00;;
21501;SDS011;27639;48.674;9.242;2023-07-29T11:11:02;3.20;;;1.70;;
21501;SDS011;27639;48.674;9.242;2023-07-29T11:13:30;4.97;;;1.92;;
21501;SDS011;27639;48.674;9.242;2023-07-29T11:15:57;4.47;;;1.77;;
21501;SDS011;27639;48.674;9.242;2023-07-29T11:18:26;4.18;;;1.90;;
21501;SDS011;27639;48.674;9.242;2023-07-29T11:21:00;3.13;;;1.80;;
21501;SDS011;27639;48.674;9.242;2023-07-29T11:23:31;3.80;;;1.90;;
21501;SDS011;27639;48.674;9.242;2023-07-29T11:25:58;3.33;;;1.75;;
21501;SDS011;27639;48.674;9.242;2023-07-29T11:28:25;3.70;;;1.77;;
21501;SDS011;27639;48.674;9.242;2023-07-29T11:30:51;3.38;;;2.03;;
21501;SDS011;27639;48.674;9.242;2023-07-29T11:33:22;4.18;;;2.65;;
21501;SDS011;27639;48.674;9.242;2023-07-29T11:35:53;3.50;;;2.10;;
21501;SDS011;27639;48.674;9.242;2023-07-29T11:38:19;4.38;;;1.90;;
21501;SDS011;27639;48.674;9.242;2023-07-29T11:40:55;4.07;;;2.20;;
21501;SDS011;27639;48.674;9.242;2023-07-29T11:43:23;4.50;;;2.30;;
21501;SDS011;27639;48.674;9.242;2023-07-29T11:45:48;4.03;;;2.38;;
21501;SDS011;27639;48.674;9.242;2023-07-29T11:48:14;4.70;;;2.25;;
21501;SDS011;27639;48.674;9.242;2023-07-29T11:50:39;3.90;;;2.13;;
21501;SDS011;27639;48.674;9.242;2023-07-29T11:53:05;3.78;;;2.05;;
21501;SDS011;27639;48.674;9.242;2023-07-29T11:55:31;3.28;;;1.88;;
21501;SDS011;27639;48.674;9.242;2023-07-29T11:57:58;4.35;;;2.00;;
21501;SDS011;27639;48.674;9.242;2023-07-29T12:00:26;3.60;;;1.98;;
21501;SDS011;27639;48.674;9.242;2023-07-29T12:02:51;4.70;;;1.75;;
21501;SDS011;27639;48.674;9.242;2023-07-29T12:05:17;3.20;;;1.95;;
21501;SDS011;27639;48.674;9.242;2023-07-29T12:07:46;3.25;;;1.90;;
21501;SDS011;27639;48.674;9.242;2023-07-29T12:10:11;3.45;;;1.90;;
21501;SDS011;27639;48.674;9.242;2023-07-29T12:12:48;3.35;;;1.85;;
21501;SDS011;27639;48.674;9.242;2023-07-29T12:15:27;3.53;;;1.95;;
21501;SDS011;27639;48.674;9.242;2023-07-29T12:17:54;2.80;;;1.65;;
21501;SDS011;27639;48.674;9.242;2023-07-29T12:20:21;3.53;;;2.00;;
21501;SDS011;27639;48.674;9.242;2023-07-29T12:22:51;4.30;;;2.05;;
21501;SDS011;27639;48.674;9.242;2023-07-29T12:25:20;5.25;;;2.10;;
21501;SDS011;27639;48.674;9.242;2023-07-29T12:27:47;4.78;;;1.83;;
21501;SDS011;27639;48.674;9.242;2023-07-29T12:30:13;3.63;;;2.17;;
21501;SDS011;27639;48.674;9.242;2023-07-29T12:32:45;3.17;;;1.83;;
21501;SDS011;27639;48.674;9.242;2023-07-29T12:35:11;3.30;;;1.90;;
21501;SDS011;27639;48.674;9.242;2023-07-29T12:37:37;4.85;;;1.70;;
21501;SDS011;27639;48.674;9.242;2023-07-29T12:40:07;2.97;;;1.70;;
21501;SDS011;27639;48.674;9.242;2023-07-29T12:42:33;3.45;;;1.90;;
21501;SDS011;27639;48.674;9.242;2023-07-29T12:44:58;3.15;;;1.80;;
21501;SDS011;27639;48.674;9.242;2023-07-29T12:47:24;4.65;;;1.83;;
21501;SDS011;27639;48.674;9.242;2023-07-29T12:49:49;4.10;;;1.98;;
21501;SDS011;27639;48.674;9.242;2023-07-29T12:52:15;4.47;;;1.67;;
21501;SDS011;27639;48.674;9.242;2023-07-29T12:54:41;3.95;;;1.80;;
21501;SDS011;27639;48.674;9.242;2023-07-29T12:57:09;3.45;;;1.80;;
21501;SDS011;27639;48.674;9.242;2023-07-29T12:59:34;4.60;;;1.75;;
21501;SDS011;27639;48.674;9.242;2023-07-29T13:02:00;3.30;;;1.77;;
21501;SDS011;27639;48.674;9.242;2023-07-29T13:04:25;4.13;;;1.70;;
21501;SDS011;27639;48.674;9.242;2023-07-29T13:06:51;3.38;;;1.70;;
21501;SDS011;27639;48.674;9.242;2023-07-29T13:09:16;3.08;;;1.40;;
21501;SDS011;27639;48.674;9.242;2023-07-29T13:11:42;4.00;;;1.83;;
21501;SDS011;27639;48.674;9.242;2023-07-29T13:14:08;4.60;;;1.80;;
21501;SDS011;27639;48.674;9.242;2023-07-29T13:16:33;3.15;;;1.75;;
21501;SDS011;27639;48.674;9.242;2023-07-29T13:18:59;3.40;;;1.90;;
21501;SDS011;27639;48.674;9.242;2023-07-29T13:21:24;3.40;;;1.63;;
21501;SDS011;27639;48.674;9.242;2023-07-29T13:23:51;3.38;;;1.90;;
21501;SDS011;27639;48.674;9.242;2023-07-29T13:26:17;3.22;;;1.67;;
21501;SDS011;27639;48.674;9.242;2023-07-29T13:28:42;2.55;;;1.40;;
21501;SDS011;27639;48.674;9.242;2023-07-29T13:31:08;3.47;;;1.77;;
21501;SDS011;27639;48.674;9.242;2023-07-29T13:33:33;3.65;;;1.58;;
21501;SDS011;27639;48.674;9.242;2023-07-29T13:35:59;4.10;;;1.80;;
21501;SDS011;27639;48.674;9.242;2023-07-29T13:38:27;4.78;;;1.85;;
21501;SDS011;27639;48.674;9.242;2023-07-29T13:40:53;3.97;;;1.73;;
21501;SDS011;27639;48.674;9.242;2023-07-29T13:43:18;4.97;;;1.50;;
21501;SDS011;27639;48.674;9.242;2023-07-29T13:45:44;3.40;;;1.83;;
21501;SDS011;27639;48.674;9.242;2023-07-29T13:48:09;4.15;;;2.00;;
21501;SDS011;27639;48.674;9.242;2023-07-29T13:50:35;4.18;;;1.88;;
21501;SDS011;27639;48.674;9.242;2023-07-29T13:53:00;3.20;;;1.73;;
21501;SDS011;27639;48.674;9.242;2023-07-29T13:55:26;2.92;;;1.40;;
21501;SDS011;27639;48.674;9.242;2023-07-29T13:57:52;3.00;;;1.50;;
21501;SDS011;27639;48.674;9.242;2023-07-29T14:00:18;3.35;;;1.92;;
21501;SDS011;27639;48.674;9.242;2023-07-29T14:02:44;3.25;;;1.60;;
21501;SDS011;27639;48.674;9.242;2023-07-29T14:05:09;2.92;;;1.63;;
21501;SDS011;27639;48.674;9.242;2023-07-29T14:07:36;2.90;;;1.60;;
21501;SDS011;27639;48.674;9.242;2023-07-29T14:10:02;3.63;;;1.70;;
21501;SDS011;27639;48.674;9.242;2023-07-29T14:12:28;3.75;;;2.08;;
21501;SDS011;27639;48.674;9.242;2023-07-29T14:14:53;3.00;;;1.63;;
21501;SDS011;27639;48.674;9.242;2023-07-29T14:17:19;3.70;;;1.83;;
21501;SDS011;27639;48.674;9.242;2023-07-29T14:19:44;3.55;;;1.70;;
21501;SDS011;27639;48.674;9.242;2023-07-29T14:22:10;3.22;;;1.77;;
21501;SDS011;27639;48.674;9.242;2023-07-29T14:24:35;3.35;;;1.60;;
21501;SDS011;27639;48.674;9.242;2023-07-29T14:27:01;4.38;;;1.90;;
21501;SDS011;27639;48.674;9.242;2023-07-29T14:29:28;4.22;;;1.70;;
21501;SDS011;27639;48.674;9.242;2023-07-29T14:31:53;3.15;;;1.58;;
21501;SDS011;27639;48.674;9.242;2023-07-29T14:34:19;3.50;;;1.90;;
21501;SDS011;27639;48.674;9.242;2023-07-29T14:36:44;3.30;;;1.80;;
21501;SDS011;27639;48.674;9.242;2023-07-29T14:39:10;3.47;;;1.80;;
21501;SDS011;27639;48.674;9.242;2023-07-29T14:41:36;4.03;;;1.70;;
21501;SDS011;27639;48.674;9.242;2023-07-29T14:44:02;2.83;;;1.60;;
21501;SDS011;27639;48.674;9.242;2023-07-29T14:46:27;3.55;;;1.98;;
21501;SDS011;27639;48.674;9.242;2023-07-29T14:48:53;4.75;;;1.70;;
21501;SDS011;27639;48.674;9.242;2023-07-29T14:51:18;3.28;;;1.77;;
21501;SDS011;27639;48.674;9.242;2023-07-29T14:53:44;3.25;;;1.60;;
21501;SDS011;27639;48.674;9.242;2023-07-29T14:56:10;3.08;;;1.67;;
21501;SDS011;27639;48.674;9.242;2023-07-29T14:58:35;4.50;;;1.70;;